sensor_id;sensor_type;location;lat;lon;timestamp;pressure;altitude;pressure_sealevel;temperature;humidity
78170;BME280;67412;49.892;14.490;2023-02-13T00:01:13;99258.75;;;4.36;82.93
78170;BME280;67412;49.892;14.490;2023-02-13T00:03:39;99250.75;;;4.27;83.21
78170;BME280;67412;49.892;14.490;2023-02-13T00:06:05;99250.81;;;4.28;83.09
78170;BME280;67412;49.892;14.490;2023-02-13T00:08:30;99253.34;;;4.28;83.12
78170;BME280;67412;49.892;14.490;2023-02-13T00:10:56;99256.69;;;4.27;83.29
78170;BME280;67412;49.892;14.490;2023-02-13T00:13:21;99262.06;;;4.33;83.26
78170;BME280;67412;49.892;14.490;2023-02-13T00:15:57;99260.56;;;4.38;83.15
78170;BME280;67412;49.892;14.490;2023-02-13T00:18:23;99264.50;;;4.32;83.06
78170;BME280;67412;49.892;14.490;2023-02-13T00:20:59;99259.00;;;4.21;84.19
78170;BME280;67412;49.892;14.490;2023-02-13T00:23:24;99258.94;;;4.20;84.08
78170;BME280;67412;49.892;14.490;2023-02-13T00:25:50;99256.66;;;4.26;84.00
78170;BME280;67412;49.892;14.490;2023-02-13T00:28:15;99255.69;;;4.24;83.64
78170;BME280;67412;49.892;14.490;2023-02-13T00:30:41;99261.06;;;4.30;83.89
78170;BME280;67412;49.892;14.490;2023-02-13T00:33:06;99256.44;;;4.21;83.87
78170;BME280;67412;49.892;14.490;2023-02-13T00:35:31;99259.06;;;4.23;82.90
78170;BME280;67412;49.892;14.490;2023-02-13T00:37:57;99257.31;;;4.22;82.96
78170;BME280;67412;49.892;14.490;2023-02-13T00:40:22;99256.75;;;4.08;83.44
78170;BME280;67412;49.892;14.490;2023-02-13T00:42:48;99256.78;;;4.10;83.00
78170;BME280;67412;49.892;14.490;2023-02-13T00:45:13;99254.06;;;4.05;83.22
78170;BME280;67412;49.892;14.490;2023-02-13T00:47:38;99255.75;;;4.05;82.98
78170;BME280;67412;49.892;14.490;2023-02-13T00:50:04;99250.66;;;4.05;83.62
78170;BME280;67412;49.892;14.490;2023-02-13T00:52:30;99250.72;;;4.06;83.14
78170;BME280;67412;49.892;14.490;2023-02-13T00:54:55;99249.97;;;4.09;82.85
78170;BME280;67412;49.892;14.490;2023-02-13T00:57:21;99253.06;;;4.02;83.95
78170;BME280;67412;49.892;14.490;2023-02-13T00:59:46;99254.69;;;4.00;84.63
78170;BME280;67412;49.892;14.490;2023-02-13T01:02:11;99251.13;;;3.96;84.04
78170;BME280;67412;49.892;14.490;2023-02-13T01:04:37;99253.59;;;3.95;84.02
78170;BME280;67412;49.892;14.490;2023-02-13T01:07:02;99255.28;;;3.94;84.09
78170;BME280;67412;49.892;14.490;2023-02-13T01:09:27;99254.56;;;3.97;83.44
78170;BME280;67412;49.892;14.490;2023-02-13T01:11:53;99246.59;;;3.89;83.30
78170;BME280;67412;49.892;14.490;2023-02-13T01:14:18;99250.94;;;3.92;83.27
78170;BME280;67412;49.892;14.490;2023-02-13T01:16:44;99249.84;;;3.86;83.91
78170;BME280;67412;49.892;14.490;2023-02-13T01:19:09;99244.66;;;3.83;84.33
78170;BME280;67412;49.892;14.490;2023-02-13T01:21:34;99249.81;;;3.85;84.29
78170;BME280;67412;49.892;14.490;2023-02-13T01:24:03;99248.81;;;3.81;84.20
78170;BME280;67412;49.892;14.490;2023-02-13T01:26:28;99241.06;;;3.78;84.07
78170;BME280;67412;49.892;14.490;2023-02-13T01:28:54;99238.97;;;3.70;83.70
78170;BME280;67412;49.892;14.490;2023-02-13T01:31:20;99243.84;;;3.65;84.30
78170;BME280;67412;49.892;14.490;2023-02-13T01:33:46;99243.09;;;3.68;84.80
78170;BME280;67412;49.892;14.490;2023-02-13T01:36:12;99235.44;;;3.66;84.38
78170;BME280;67412;49.892;14.490;2023-02-13T01:38:38;99232.69;;;3.62;84.06
78170;BME280;67412;49.892;14.490;2023-02-13T01:41:04;99230.75;;;3.56;84.14
78170;BME280;67412;49.892;14.490;2023-02-13T01:46:07;99230.75;;;3.56;84.50
78170;BME280;67412;49.892;14.490;2023-02-13T01:48:33;99234.22;;;3.58;84.58
78170;BME280;67412;49.892;14.490;2023-02-13T01:51:02;99233.97;;;3.52;84.03
78170;BME280;67412;49.892;14.490;2023-02-13T01:53:45;99241.97;;;3.42;84.67
78170;BME280;67412;49.892;14.490;2023-02-13T01:56:14;99240.19;;;3.39;85.25
78170;BME280;67412;49.892;14.490;2023-02-13T01:58:44;99241.03;;;3.40;84.39
78170;BME280;67412;49.892;14.490;2023-02-13T02:01:11;99242.63;;;3.38;84.60
78170;BME280;67412;49.892;14.490;2023-02-13T02:06:07;99235.09;;;3.39;84.56
78170;BME280;67412;49.892;14.490;2023-02-13T02:08:35;99239.97;;;3.35;84.92
78170;BME280;67412;49.892;14.490;2023-02-13T02:11:06;99235.00;;;3.38;84.36
78170;BME280;67412;49.892;14.490;2023-02-13T02:13:33;99242.38;;;3.32;84.72
78170;BME280;67412;49.892;14.490;2023-02-13T02:15:59;99241.97;;;3.42;84.26
78170;BME280;67412;49.892;14.490;2023-02-13T02:18:25;99233.06;;;3.13;85.80
78170;BME280;67412;49.892;14.490;2023-02-13T02:26:34;99229.84;;;3.17;85.41
78170;BME280;67412;49.892;14.490;2023-02-13T02:40:31;99222.44;;;3.22;84.50
78170;BME280;67412;49.892;14.490;2023-02-13T02:43:18;99231.78;;;3.23;84.68
78170;BME280;67412;49.892;14.490;2023-02-13T02:46:00;99227.53;;;3.22;85.62
78170;BME280;67412;49.892;14.490;2023-02-13T02:57:15;99216.69;;;3.07;86.01
78170;BME280;67412;49.892;14.490;2023-02-13T02:59:42;99211.25;;;2.99;86.77
78170;BME280;67412;49.892;14.490;2023-02-13T03:02:29;99211.31;;;3.01;86.54
78170;BME280;67412;49.892;14.490;2023-02-13T03:05:20;99208.22;;;2.88;86.27
78170;BME280;67412;49.892;14.490;2023-02-13T03:08:05;99213.00;;;2.82;85.70
78170;BME280;67412;49.892;14.490;2023-02-13T03:10:33;99211.84;;;2.76;85.21
78170;BME280;67412;49.892;14.490;2023-02-13T03:13:33;99212.06;;;2.63;84.52
78170;BME280;67412;49.892;14.490;2023-02-13T03:16:02;99209.97;;;2.54;84.33
78170;BME280;67412;49.892;14.490;2023-02-13T03:18:51;99210.03;;;2.38;82.92
78170;BME280;67412;49.892;14.490;2023-02-13T03:27:19;99211.75;;;2.21;87.06
78170;BME280;67412;49.892;14.490;2023-02-13T03:33:22;99210.16;;;2.06;85.28
78170;BME280;67412;49.892;14.490;2023-02-13T03:35:52;99218.25;;;1.99;85.20
78170;BME280;67412;49.892;14.490;2023-02-13T03:38:56;99212.44;;;2.01;84.51
78170;BME280;67412;49.892;14.490;2023-02-13T03:41:29;99208.13;;;1.99;85.64
78170;BME280;67412;49.892;14.490;2023-02-13T03:44:24;99213.00;;;1.95;85.43
78170;BME280;67412;49.892;14.490;2023-02-13T03:46:49;99212.13;;;1.95;84.27
78170;BME280;67412;49.892;14.490;2023-02-13T03:49:29;99213.66;;;1.91;84.42
78170;BME280;67412;49.892;14.490;2023-02-13T03:52:31;99205.09;;;1.89;85.98
78170;BME280;67412;49.892;14.490;2023-02-13T03:55:01;99206.13;;;1.93;86.03
78170;BME280;67412;49.892;14.490;2023-02-13T03:57:49;99206.13;;;1.93;87.04
78170;BME280;67412;49.892;14.490;2023-02-13T04:00:39;99206.75;;;2.05;87.69
78170;BME280;67412;49.892;14.490;2023-02-13T04:06:24;99199.56;;;2.14;88.45
78170;BME280;67412;49.892;14.490;2023-02-13T04:08:51;99206.66;;;2.21;87.34
78170;BME280;67412;49.892;14.490;2023-02-13T04:11:21;99204.22;;;2.23;87.81
78170;BME280;67412;49.892;14.490;2023-02-13T04:13:56;99207.78;;;2.26;87.66
78170;BME280;67412;49.892;14.490;2023-02-13T04:16:42;99205.84;;;2.21;89.02
78170;BME280;67412;49.892;14.490;2023-02-13T04:19:10;99199.38;;;2.27;89.31
78170;BME280;67412;49.892;14.490;2023-02-13T04:21:38;99204.03;;;2.36;87.89
78170;BME280;67412;49.892;14.490;2023-02-13T04:24:05;99199.09;;;2.39;87.13
78170;BME280;67412;49.892;14.490;2023-02-13T04:26:35;99203.22;;;2.37;87.26
78170;BME280;67412;49.892;14.490;2023-02-13T04:29:02;99210.03;;;2.38;87.68
78170;BME280;67412;49.892;14.490;2023-02-13T04:31:27;99203.44;;;2.41;87.56
78170;BME280;67412;49.892;14.490;2023-02-13T04:33:53;99197.22;;;2.53;87.62
78170;BME280;67412;49.892;14.490;2023-02-13T04:36:18;99201.03;;;2.44;87.58
78170;BME280;67412;49.892;14.490;2023-02-13T04:38:43;99196.34;;;2.52;88.22
78170;BME280;67412;49.892;14.490;2023-02-13T04:41:10;99199.00;;;2.55;87.36
78170;BME280;67412;49.892;14.490;2023-02-13T04:43:35;99205.63;;;2.52;87.43
78170;BME280;67412;49.892;14.490;2023-02-13T04:46:01;99213.31;;;2.53;87.30
78170;BME280;67412;49.892;14.490;2023-02-13T04:48:27;99207.13;;;2.48;86.98
78170;BME280;67412;49.892;14.490;2023-02-13T04:50:52;99209.91;;;2.53;87.63
78170;BME280;67412;49.892;14.490;2023-02-13T04:53:18;99220.19;;;2.56;87.95
78170;BME280;67412;49.892;14.490;2023-02-13T04:55:43;99205.97;;;2.59;87.61
78170;BME280;67412;49.892;14.490;2023-02-13T04:58:09;99207.28;;;2.69;87.60
78170;BME280;67412;49.892;14.490;2023-02-13T05:00:34;99209.97;;;2.72;87.71
78170;BME280;67412;49.892;14.490;2023-02-13T05:03:07;99214.19;;;2.54;88.51
78170;BME280;67412;49.892;14.490;2023-02-13T05:05:33;99208.50;;;2.59;88.25
78170;BME280;67412;49.892;14.490;2023-02-13T05:07:59;99214.41;;;2.58;87.98
78170;BME280;67412;49.892;14.490;2023-02-13T05:10:25;99204.09;;;2.55;87.87
78170;BME280;67412;49.892;14.490;2023-02-13T05:12:50;99203.88;;;2.68;89.27
78170;BME280;67412;49.892;14.490;2023-02-13T05:15:16;99199.47;;;2.64;88.37
78170;BME280;67412;49.892;14.490;2023-02-13T05:17:45;99201.25;;;2.67;87.61
78170;BME280;67412;49.892;14.490;2023-02-13T05:20:12;99204.53;;;2.64;87.35
78170;BME280;67412;49.892;14.490;2023-02-13T05:22:45;99195.19;;;2.63;87.28
78170;BME280;67412;49.892;14.490;2023-02-13T05:25:29;99205.03;;;2.57;87.79
78170;BME280;67412;49.892;14.490;2023-02-13T05:27:55;99202.00;;;2.64;87.43
78170;BME280;67412;49.892;14.490;2023-02-13T05:30:20;99209.03;;;2.70;87.93
78170;BME280;67412;49.892;14.490;2023-02-13T05:32:46;99211.56;;;2.70;88.05
78170;BME280;67412;49.892;14.490;2023-02-13T05:35:11;99212.34;;;2.86;88.73
78170;BME280;67412;49.892;14.490;2023-02-13T05:37:36;99210.91;;;2.91;88.08
78170;BME280;67412;49.892;14.490;2023-02-13T05:40:02;99211.16;;;2.98;87.16
78170;BME280;67412;49.892;14.490;2023-02-13T05:42:27;99211.41;;;2.84;87.34
78170;BME280;67412;49.892;14.490;2023-02-13T05:44:53;99214.59;;;2.80;86.76
78170;BME280;67412;49.892;14.490;2023-02-13T05:47:18;99215.13;;;2.73;86.99
78170;BME280;67412;49.892;14.490;2023-02-13T05:49:44;99220.19;;;2.73;87.45
78170;BME280;67412;49.892;14.490;2023-02-13T05:52:09;99210.19;;;2.76;86.99
78170;BME280;67412;49.892;14.490;2023-02-13T05:54:35;99205.13;;;2.76;86.73
78170;BME280;67412;49.892;14.490;2023-02-13T05:57:02;99208.44;;;2.75;87.37
78170;BME280;67412;49.892;14.490;2023-02-13T05:59:28;99205.34;;;2.81;87.39
78170;BME280;67412;49.892;14.490;2023-02-13T06:01:53;99206.69;;;2.74;87.70
78170;BME280;67412;49.892;14.490;2023-02-13T06:04:18;99199.81;;;2.72;87.75
78170;BME280;67412;49.892;14.490;2023-02-13T06:06:44;99210.47;;;2.82;88.04
78170;BME280;67412;49.892;14.490;2023-02-13T06:09:10;99203.63;;;2.81;87.29
78170;BME280;67412;49.892;14.490;2023-02-13T06:11:35;99215.25;;;2.76;87.79
78170;BME280;67412;49.892;14.490;2023-02-13T06:14:01;99219.59;;;2.79;87.49
78170;BME280;67412;49.892;14.490;2023-02-13T06:16:26;99212.22;;;2.83;87.77
78170;BME280;67412;49.892;14.490;2023-02-13T06:18:52;99214.88;;;2.86;87.46
78170;BME280;67412;49.892;14.490;2023-02-13T06:21:17;99219.75;;;2.82;86.52
78170;BME280;67412;49.892;14.490;2023-02-13T06:23:42;99218.47;;;2.72;86.80
78170;BME280;67412;49.892;14.490;2023-02-13T06:26:08;99218.81;;;2.80;86.89
78170;BME280;67412;49.892;14.490;2023-02-13T06:28:34;99224.69;;;2.79;87.29
78170;BME280;67412;49.892;14.490;2023-02-13T06:31:00;99223.88;;;2.80;87.32
78170;BME280;67412;49.892;14.490;2023-02-13T06:33:25;99217.00;;;2.77;87.22
78170;BME280;67412;49.892;14.490;2023-02-13T06:35:51;99227.94;;;2.76;86.84
78170;BME280;67412;49.892;14.490;2023-02-13T06:38:16;99226.28;;;2.77;86.75
78170;BME280;67412;49.892;14.490;2023-02-13T06:40:46;99233.94;;;2.78;86.87
78170;BME280;67412;49.892;14.490;2023-02-13T06:43:13;99230.72;;;2.81;86.26
78170;BME280;67412;49.892;14.490;2023-02-13T06:45:38;99232.16;;;2.76;87.09
78170;BME280;67412;49.892;14.490;2023-02-13T06:48:04;99232.28;;;2.79;86.90
78170;BME280;67412;49.892;14.490;2023-02-13T06:50:30;99236.81;;;2.84;87.74
78170;BME280;67412;49.892;14.490;2023-02-13T06:52:55;99230.84;;;2.84;87.20
78170;BME280;67412;49.892;14.490;2023-02-13T06:55:20;99232.50;;;2.83;87.23
78170;BME280;67412;49.892;14.490;2023-02-13T06:57:46;99235.97;;;2.85;86.53
78170;BME280;67412;49.892;14.490;2023-02-13T07:00:14;99234.41;;;2.87;86.61
78170;BME280;67412;49.892;14.490;2023-02-13T07:02:41;99235.53;;;2.94;87.03
78170;BME280;67412;49.892;14.490;2023-02-13T07:05:07;99237.56;;;3.01;86.47
78170;BME280;67412;49.892;14.490;2023-02-13T07:07:38;99233.28;;;3.00;86.66
78170;BME280;67412;49.892;14.490;2023-02-13T07:10:06;99233.34;;;3.02;87.48
78170;BME280;67412;49.892;14.490;2023-02-13T07:12:33;99235.03;;;3.01;87.73
78170;BME280;67412;49.892;14.490;2023-02-13T07:14:59;99237.56;;;3.01;87.56
78170;BME280;67412;49.892;14.490;2023-02-13T07:17:24;99237.69;;;3.04;87.50
78170;BME280;67412;49.892;14.490;2023-02-13T07:19:51;99245.53;;;3.09;87.15
78170;BME280;67412;49.892;14.490;2023-02-13T07:22:16;99245.13;;;3.19;87.87
78170;BME280;67412;49.892;14.490;2023-02-13T07:24:42;99250.56;;;3.07;87.49
78170;BME280;67412;49.892;14.490;2023-02-13T07:27:07;99250.91;;;3.15;87.06
78170;BME280;67412;49.892;14.490;2023-02-13T07:29:32;99256.25;;;3.21;87.09
78170;BME280;67412;49.892;14.490;2023-02-13T07:31:58;99245.56;;;3.28;86.79
78170;BME280;67412;49.892;14.490;2023-02-13T07:34:23;99246.50;;;3.30;86.57
78170;BME280;67412;49.892;14.490;2023-02-13T07:36:49;99250.13;;;3.35;86.16
78170;BME280;67412;49.892;14.490;2023-02-13T07:39:14;99252.78;;;3.38;85.99
78170;BME280;67412;49.892;14.490;2023-02-13T07:41:40;99254.13;;;3.49;85.87
78170;BME280;67412;49.892;14.490;2023-02-13T07:44:05;99252.47;;;3.50;86.01
78170;BME280;67412;49.892;14.490;2023-02-13T07:46:30;99256.09;;;3.55;86.23
78170;BME280;67412;49.892;14.490;2023-02-13T07:48:56;99261.97;;;3.54;85.92
78170;BME280;67412;49.892;14.490;2023-02-13T07:51:21;99247.59;;;3.54;86.30
78170;BME280;67412;49.892;14.490;2023-02-13T07:53:50;99258.03;;;3.60;85.95
78170;BME280;67412;49.892;14.490;2023-02-13T07:56:16;99250.56;;;3.63;85.97
78170;BME280;67412;49.892;14.490;2023-02-13T07:58:41;99246.81;;;3.74;85.48
78170;BME280;67412;49.892;14.490;2023-02-13T08:01:11;99243.59;;;3.78;85.39
78170;BME280;67412;49.892;14.490;2023-02-13T08:03:37;99229.69;;;3.70;85.86
78170;BME280;67412;49.892;14.490;2023-02-13T08:06:03;99241.72;;;3.74;85.73
78170;BME280;67412;49.892;14.490;2023-02-13T08:08:29;99231.03;;;3.81;85.61
78170;BME280;67412;49.892;14.490;2023-02-13T08:10:54;99234.56;;;3.85;85.61
78170;BME280;67412;49.892;14.490;2023-02-13T08:13:40;99230.72;;;3.95;85.27
78170;BME280;67412;49.892;14.490;2023-02-13T08:16:06;99236.22;;;4.04;85.03
78170;BME280;67412;49.892;14.490;2023-02-13T08:18:31;99236.44;;;4.10;84.87
78170;BME280;67412;49.892;14.490;2023-02-13T08:20:56;99243.16;;;4.08;84.11
78170;BME280;67412;49.892;14.490;2023-02-13T08:23:22;99235.56;;;3.88;84.97
78170;BME280;67412;49.892;14.490;2023-02-13T08:25:47;99243.44;;;3.95;85.07
78170;BME280;67412;49.892;14.490;2023-02-13T08:28:14;99241.28;;;4.04;84.52
78170;BME280;67412;49.892;14.490;2023-02-13T08:30:40;99245.91;;;4.12;84.53
78170;BME280;67412;49.892;14.490;2023-02-13T08:33:05;99244.34;;;4.16;84.00
78170;BME280;67412;49.892;14.490;2023-02-13T08:35:30;99241.44;;;4.27;83.23
78170;BME280;67412;49.892;14.490;2023-02-13T08:38:00;99249.56;;;4.39;83.17
78170;BME280;67412;49.892;14.490;2023-02-13T08:40:25;99241.63;;;4.53;81.96
78170;BME280;67412;49.892;14.490;2023-02-13T08:42:51;99242.88;;;4.62;81.49
78170;BME280;67412;49.892;14.490;2023-02-13T08:45:16;99242.28;;;4.69;81.46
78170;BME280;67412;49.892;14.490;2023-02-13T08:47:42;99240.25;;;4.81;79.95
78170;BME280;67412;49.892;14.490;2023-02-13T08:50:07;99241.03;;;4.80;78.83
78170;BME280;67412;49.892;14.490;2023-02-13T08:52:33;99240.44;;;4.86;79.69
78170;BME280;67412;49.892;14.490;2023-02-13T08:54:58;99246.50;;;4.90;81.29
78170;BME280;67412;49.892;14.490;2023-02-13T08:57:24;99244.56;;;4.84;81.01
78170;BME280;67412;49.892;14.490;2023-02-13T08:59:49;99242.47;;;4.74;81.58
78170;BME280;67412;49.892;14.490;2023-02-13T09:02:14;99248.44;;;4.74;81.67
78170;BME280;67412;49.892;14.490;2023-02-13T09:04:40;99253.16;;;4.86;81.37
78170;BME280;67412;49.892;14.490;2023-02-13T09:07:05;99250.22;;;4.98;80.94
78170;BME280;67412;49.892;14.490;2023-02-13T09:09:31;99249.56;;;5.03;80.53
78170;BME280;67412;49.892;14.490;2023-02-13T09:11:56;99247.50;;;5.15;79.91
78170;BME280;67412;49.892;14.490;2023-02-13T09:14:24;99243.50;;;5.22;79.88
78170;BME280;67412;49.892;14.490;2023-02-13T09:16:50;99244.34;;;5.21;79.63
78170;BME280;67412;49.892;14.490;2023-02-13T09:19:15;99249.53;;;5.24;79.90
78170;BME280;67412;49.892;14.490;2023-02-13T09:21:40;99253.34;;;5.35;79.43
78170;BME280;67412;49.892;14.490;2023-02-13T09:24:09;99247.59;;;5.41;79.42
78170;BME280;67412;49.892;14.490;2023-02-13T09:26:35;99259.72;;;5.46;79.55
78170;BME280;67412;49.892;14.490;2023-02-13T09:29:00;99254.13;;;5.56;79.02
78170;BME280;67412;49.892;14.490;2023-02-13T09:31:27;99259.34;;;5.59;78.96
78170;BME280;67412;49.892;14.490;2023-02-13T09:33:52;99256.75;;;5.58;78.38
78170;BME280;67412;49.892;14.490;2023-02-13T09:36:21;99257.66;;;5.60;78.63
78170;BME280;67412;49.892;14.490;2023-02-13T09:38:51;99249.66;;;5.73;77.59
78170;BME280;67412;49.892;14.490;2023-02-13T09:41:35;99251.03;;;5.87;77.71
78170;BME280;67412;49.892;14.490;2023-02-13T09:44:35;99248.94;;;6.01;77.56
78170;BME280;67412;49.892;14.490;2023-02-13T09:49:31;99250.63;;;6.24;76.69
78170;BME280;67412;49.892;14.490;2023-02-13T09:51:58;99251.81;;;6.34;76.13
78170;BME280;67412;49.892;14.490;2023-02-13T09:54:23;99259.03;;;6.47;75.42
78170;BME280;67412;49.892;14.490;2023-02-13T09:59:49;99264.56;;;6.59;71.56
78170;BME280;67412;49.892;14.490;2023-02-13T10:05:38;99263.38;;;6.74;71.76
78170;BME280;67412;49.892;14.490;2023-02-13T10:08:35;99264.03;;;6.69;71.87
78170;BME280;67412;49.892;14.490;2023-02-13T10:22:12;99262.16;;;6.63;69.85
78170;BME280;67412;49.892;14.490;2023-02-13T10:24:43;99263.16;;;6.68;70.44
78170;BME280;67412;49.892;14.490;2023-02-13T10:27:23;99261.22;;;6.61;69.84
78170;BME280;67412;49.892;14.490;2023-02-13T10:32:51;99258.03;;;6.68;69.58
78170;BME280;67412;49.892;14.490;2023-02-13T10:35:36;99256.78;;;6.82;68.41
78170;BME280;67412;49.892;14.490;2023-02-13T10:38:11;99247.25;;;6.77;69.37
78170;BME280;67412;49.892;14.490;2023-02-13T10:40:43;99255.06;;;6.82;69.47
78170;BME280;67412;49.892;14.490;2023-02-13T10:43:18;99253.72;;;6.93;69.24
78170;BME280;67412;49.892;14.490;2023-02-13T10:46:01;99250.38;;;6.95;68.12
78170;BME280;67412;49.892;14.490;2023-02-13T10:51:37;99241.50;;;7.11;66.31
78170;BME280;67412;49.892;14.490;2023-02-13T10:57:07;99233.97;;;7.15;66.52
78170;BME280;67412;49.892;14.490;2023-02-13T11:02:26;99238.69;;;7.30;66.02
78170;BME280;67412;49.892;14.490;2023-02-13T11:04:57;99243.56;;;7.22;65.76
78170;BME280;67412;49.892;14.490;2023-02-13T11:07:24;99232.72;;;7.31;64.74
78170;BME280;67412;49.892;14.490;2023-02-13T11:09:54;99236.22;;;7.33;64.90
78170;BME280;67412;49.892;14.490;2023-02-13T11:12:30;99236.88;;;7.27;64.81
78170;BME280;67412;49.892;14.490;2023-02-13T11:15:05;99228.75;;;7.41;64.24
78170;BME280;67412;49.892;14.490;2023-02-13T11:17:33;99235.84;;;7.49;64.46
78170;BME280;67412;49.892;14.490;2023-02-13T11:20:03;99231.69;;;7.54;63.92
78170;BME280;67412;49.892;14.490;2023-02-13T11:22:36;99232.41;;;7.49;62.38
78170;BME280;67412;49.892;14.490;2023-02-13T11:25:17;99231.00;;;7.30;61.88
78170;BME280;67412;49.892;14.490;2023-02-13T11:27:43;99230.50;;;7.42;61.82
78170;BME280;67412;49.892;14.490;2023-02-13T11:30:30;99226.88;;;7.35;62.38
78170;BME280;67412;49.892;14.490;2023-02-13T11:35:36;99228.94;;;7.47;63.58
78170;BME280;67412;49.892;14.490;2023-02-13T11:40:40;99222.19;;;7.49;63.15
78170;BME280;67412;49.892;14.490;2023-02-13T11:43:17;99228.84;;;7.44;61.98
78170;BME280;67412;49.892;14.490;2023-02-13T11:45:44;99221.97;;;7.41;62.17
78170;BME280;67412;49.892;14.490;2023-02-13T11:48:19;99227.97;;;7.43;61.14
78170;BME280;67412;49.892;14.490;2023-02-13T11:50:51;99233.72;;;7.35;61.45
78170;BME280;67412;49.892;14.490;2023-02-13T11:53:23;99237.25;;;7.40;61.48
78170;BME280;67412;49.892;14.490;2023-02-13T11:56:08;99227.53;;;7.28;61.49
78170;BME280;67412;49.892;14.490;2023-02-13T11:58:34;99230.28;;;7.34;61.74
78170;BME280;67412;49.892;14.490;2023-02-13T12:04:16;99229.78;;;7.47;61.59
78170;BME280;67412;49.892;14.490;2023-02-13T12:09:23;99224.97;;;7.58;60.80
78170;BME280;67412;49.892;14.490;2023-02-13T12:11:51;99226.66;;;7.57;60.76
78170;BME280;67412;49.892;14.490;2023-02-13T12:14:22;99224.03;;;7.54;60.14
78170;BME280;67412;49.892;14.490;2023-02-13T12:17:06;99218.53;;;7.41;61.06
78170;BME280;67412;49.892;14.490;2023-02-13T12:19:44;99210.16;;;7.46;61.64
78170;BME280;67412;49.892;14.490;2023-02-13T12:22:34;99209.63;;;7.58;60.32
78170;BME280;67412;49.892;14.490;2023-02-13T12:39:08;99183.09;;;7.53;59.33
78170;BME280;67412;49.892;14.490;2023-02-13T12:44:40;99177.78;;;7.47;59.87
78170;BME280;67412;49.892;14.490;2023-02-13T12:47:23;99184.13;;;7.59;59.19
78170;BME280;67412;49.892;14.490;2023-02-13T12:52:28;99181.56;;;7.59;60.02
78170;BME280;67412;49.892;14.490;2023-02-13T13:11:40;99156.72;;;7.55;57.96
78170;BME280;67412;49.892;14.490;2023-02-13T13:19:48;99150.75;;;7.88;57.27
78170;BME280;67412;49.892;14.490;2023-02-13T13:27:42;99156.47;;;7.77;58.59
78170;BME280;67412;49.892;14.490;2023-02-13T13:32:51;99155.25;;;7.65;57.82
78170;BME280;67412;49.892;14.490;2023-02-13T13:35:19;99150.53;;;7.47;58.52
78170;BME280;67412;49.892;14.490;2023-02-13T13:46:02;99154.44;;;7.64;58.60
78170;BME280;67412;49.892;14.490;2023-02-13T13:51:24;99138.47;;;7.74;59.74
78170;BME280;67412;49.892;14.490;2023-02-13T13:57:08;99132.91;;;7.89;57.53
78170;BME280;67412;49.892;14.490;2023-02-13T14:07:50;99151.94;;;7.67;58.59
78170;BME280;67412;49.892;14.490;2023-02-13T14:13:05;99148.66;;;7.71;57.86
78170;BME280;67412;49.892;14.490;2023-02-13T14:23:47;99162.66;;;7.54;58.85
78170;BME280;67412;49.892;14.490;2023-02-13T14:36:39;99160.38;;;7.34;60.08
78170;BME280;67412;49.892;14.490;2023-02-13T14:39:24;99162.94;;;7.34;60.56
78170;BME280;67412;49.892;14.490;2023-02-13T14:44:25;99152.31;;;7.20;60.55
78170;BME280;67412;49.892;14.490;2023-02-13T14:46:54;99153.09;;;7.17;59.96
78170;BME280;67412;49.892;14.490;2023-02-13T14:49:26;99143.59;;;7.13;60.55
78170;BME280;67412;49.892;14.490;2023-02-13T14:51:55;99147.53;;;7.01;60.55
78170;BME280;67412;49.892;14.490;2023-02-13T14:54:26;99152.63;;;7.01;60.43
78170;BME280;67412;49.892;14.490;2023-02-13T14:57:04;99151.63;;;6.96;61.00
78170;BME280;67412;49.892;14.490;2023-02-13T14:59:34;99154.84;;;6.90;61.14
78170;BME280;67412;49.892;14.490;2023-02-13T15:02:13;99159.06;;;6.88;60.99
78170;BME280;67412;49.892;14.490;2023-02-13T15:04:42;99150.22;;;6.77;61.48
78170;BME280;67412;49.892;14.490;2023-02-13T15:07:22;99146.63;;;6.72;61.25
78170;BME280;67412;49.892;14.490;2023-02-13T15:09:57;99141.28;;;6.63;61.99
78170;BME280;67412;49.892;14.490;2023-02-13T15:12:31;99138.34;;;6.51;61.57
78170;BME280;67412;49.892;14.490;2023-02-13T15:14:58;99138.03;;;6.42;62.03
78170;BME280;67412;49.892;14.490;2023-02-13T15:17:31;99128.59;;;6.39;62.93
78170;BME280;67412;49.892;14.490;2023-02-13T15:20:16;99133.72;;;6.39;62.92
78170;BME280;67412;49.892;14.490;2023-02-13T15:22:46;99131.09;;;6.38;63.67
78170;BME280;67412;49.892;14.490;2023-02-13T15:27:51;99127.59;;;6.34;63.11
78170;BME280;67412;49.892;14.490;2023-02-13T15:30:24;99122.38;;;6.31;63.58
78170;BME280;67412;49.892;14.490;2023-02-13T15:37:46;99118.88;;;6.27;63.99
78170;BME280;67412;49.892;14.490;2023-02-13T15:42:45;99134.19;;;6.27;62.96
78170;BME280;67412;49.892;14.490;2023-02-13T15:45:17;99137.13;;;6.13;64.67
78170;BME280;67412;49.892;14.490;2023-02-13T15:47:45;99137.84;;;6.09;63.92
78170;BME280;67412;49.892;14.490;2023-02-13T15:50:30;99127.63;;;6.09;64.36
78170;BME280;67412;49.892;14.490;2023-02-13T15:52:59;99124.88;;;6.03;64.33
78170;BME280;67412;49.892;14.490;2023-02-13T15:55:28;99123.25;;;6.05;64.00
78170;BME280;67412;49.892;14.490;2023-02-13T15:57:56;99126.66;;;6.05;64.17
78170;BME280;67412;49.892;14.490;2023-02-13T16:00:36;99113.75;;;6.01;64.23
78170;BME280;67412;49.892;14.490;2023-02-13T16:03:06;99114.28;;;5.91;64.00
78170;BME280;67412;49.892;14.490;2023-02-13T16:05:38;99119.56;;;5.97;63.84
78170;BME280;67412;49.892;14.490;2023-02-13T16:08:27;99115.06;;;5.88;64.45
78170;BME280;67412;49.892;14.490;2023-02-13T16:14:05;99113.03;;;5.79;64.49
78170;BME280;67412;49.892;14.490;2023-02-13T16:21:49;99117.91;;;5.48;65.59
78170;BME280;67412;49.892;14.490;2023-02-13T16:24:16;99118.22;;;5.57;65.25
78170;BME280;67412;49.892;14.490;2023-02-13T16:26:43;99116.38;;;5.53;65.28
78170;BME280;67412;49.892;14.490;2023-02-13T16:29:20;99111.19;;;5.50;65.49
78170;BME280;67412;49.892;14.490;2023-02-13T16:31:48;99110.22;;;5.47;65.57
78170;BME280;67412;49.892;14.490;2023-02-13T16:34:25;99107.44;;;5.41;65.56